createdAt,value
2018-12-13T00:01:34.198Z,7.47
2018-12-13T00:04:02.638Z,7.33
2018-12-13T00:06:33.465Z,7.03
2018-12-13T00:09:01.567Z,7.47
2018-12-13T00:11:30.029Z,7.80
2018-12-13T00:13:58.502Z,7.60
2018-12-13T00:16:26.955Z,7.70
2018-12-13T00:18:55.428Z,7.77
2018-12-13T00:21:23.868Z,8.00
2018-12-13T00:23:52.291Z,6.50
2018-12-13T00:26:20.742Z,8.23
2018-12-13T00:28:49.705Z,7.43
2018-12-13T00:31:18.144Z,7.80
2018-12-13T00:33:46.575Z,8.10
2018-12-13T00:36:15.052Z,7.33
2018-12-13T00:38:43.496Z,8.30
2018-12-13T00:41:11.928Z,7.70
2018-12-13T00:43:40.345Z,7.50
2018-12-13T00:46:08.810Z,10.07
2018-12-13T00:48:37.281Z,8.27
2018-12-13T00:51:05.721Z,8.40
2018-12-13T00:53:34.183Z,7.30
2018-12-13T00:56:02.656Z,8.97
2018-12-13T00:58:31.104Z,7.77
2018-12-13T01:01:01.562Z,7.87
2018-12-13T01:03:30.692Z,8.80
2018-12-13T01:05:59.383Z,8.80
2018-12-13T01:08:28.001Z,8.33
2018-12-13T01:10:56.407Z,8.60
2018-12-13T01:13:24.864Z,7.73
2018-12-13T01:15:53.450Z,17.03
2018-12-13T01:18:21.882Z,8.47
2018-12-13T01:20:50.333Z,7.83
2018-12-13T01:23:18.786Z,7.27
2018-12-13T01:25:47.245Z,9.20
2018-12-13T01:28:15.699Z,8.40
2018-12-13T01:30:44.142Z,8.67
2018-12-13T01:33:12.588Z,7.57
2018-12-13T01:35:40.998Z,8.57
2018-12-13T01:38:09.407Z,8.57
2018-12-13T01:40:37.844Z,8.40
2018-12-13T01:43:06.543Z,8.73
2018-12-13T01:45:35.534Z,8.63
2018-12-13T01:48:03.991Z,9.60
2018-12-13T01:50:32.463Z,9.17
2018-12-13T01:53:00.959Z,7.70
2018-12-13T01:55:29.383Z,8.77
2018-12-13T01:57:57.809Z,8.60
2018-12-13T02:00:26.269Z,8.30
2018-12-13T02:02:54.683Z,8.47
2018-12-13T02:05:23.154Z,10.20
2018-12-13T02:07:51.586Z,10.47
2018-12-13T02:10:20.038Z,9.80
2018-12-13T02:12:48.442Z,9.10
2018-12-13T02:15:16.924Z,8.10
2018-12-13T02:17:45.358Z,9.40
2018-12-13T02:20:13.807Z,8.97
2018-12-13T02:22:42.267Z,8.10
2018-12-13T02:25:10.776Z,7.80
2018-12-13T02:27:39.266Z,8.87
2018-12-13T02:30:09.879Z,9.33
2018-12-13T02:32:38.361Z,8.10
2018-12-13T02:35:07.110Z,10.30
2018-12-13T02:37:35.627Z,8.80
2018-12-13T02:40:04.440Z,10.23
2018-12-13T02:42:33.043Z,8.50
2018-12-13T02:45:01.473Z,9.10
2018-12-13T02:47:30.592Z,9.50
2018-12-13T02:49:59.059Z,8.53
2018-12-13T02:52:27.547Z,9.03
2018-12-13T02:54:56.087Z,9.10
2018-12-13T02:57:24.529Z,8.40
2018-12-13T02:59:52.970Z,8.63
2018-12-13T03:02:21.476Z,9.37
2018-12-13T03:04:56.743Z,8.47
2018-12-13T03:07:25.194Z,8.67
2018-12-13T03:09:53.670Z,7.20
2018-12-13T03:12:22.086Z,7.93
2018-12-13T03:14:50.592Z,9.53
2018-12-13T03:17:19.467Z,9.13
2018-12-13T03:19:47.948Z,9.13
2018-12-13T03:22:16.364Z,8.03
2018-12-13T03:24:44.856Z,9.53
2018-12-13T03:27:14.280Z,9.93
2018-12-13T03:29:42.730Z,9.43
2018-12-13T03:32:11.225Z,8.70
2018-12-13T03:34:39.696Z,9.00
2018-12-13T03:37:08.129Z,8.53
2018-12-13T03:39:36.584Z,9.03
2018-12-13T03:42:05.270Z,9.47
2018-12-13T03:44:33.776Z,8.27
2018-12-13T03:47:02.219Z,10.97
2018-12-13T03:49:30.647Z,7.47
2018-12-13T03:51:59.148Z,8.83
2018-12-13T03:54:27.573Z,9.90
2018-12-13T03:56:56.939Z,9.10
2018-12-13T03:59:25.354Z,8.00
2018-12-13T04:01:54.900Z,8.93
2018-12-13T04:04:23.329Z,7.87
2018-12-13T04:06:51.821Z,9.33
2018-12-13T04:09:20.315Z,9.13
2018-12-13T04:11:48.769Z,8.30
2018-12-13T04:14:17.374Z,8.83
2018-12-13T04:16:45.809Z,8.57
2018-12-13T04:19:14.254Z,9.20
2018-12-13T04:21:42.689Z,9.17
2018-12-13T04:24:11.148Z,9.03
2018-12-13T04:26:39.609Z,8.13
2018-12-13T04:29:08.061Z,9.33
2018-12-13T04:31:36.532Z,9.80
2018-12-13T04:34:04.959Z,8.50
2018-12-13T04:36:33.415Z,9.70
2018-12-13T04:39:01.871Z,8.93
2018-12-13T04:41:30.454Z,9.70
2018-12-13T04:43:59.042Z,9.43
2018-12-13T04:46:27.454Z,7.87
2018-12-13T04:48:55.917Z,8.37
2018-12-13T04:51:24.383Z,8.10
2018-12-13T04:53:52.811Z,9.50
2018-12-13T04:56:21.232Z,6.77
2018-12-13T04:58:49.721Z,9.00
2018-12-13T05:01:18.179Z,8.43
2018-12-13T05:03:46.612Z,8.50
2018-12-13T05:06:15.077Z,9.00
2018-12-13T05:08:43.581Z,9.77
2018-12-13T05:11:12.032Z,8.93
2018-12-13T05:13:41.032Z,8.40
2018-12-13T05:16:09.499Z,8.67
2018-12-13T05:18:37.957Z,8.77
2018-12-13T05:21:06.417Z,8.67
2018-12-13T05:23:34.914Z,9.77
2018-12-13T05:26:03.404Z,7.90
2018-12-13T05:28:31.950Z,7.47
2018-12-13T05:31:00.392Z,7.33
2018-12-13T05:33:28.843Z,8.70
2018-12-13T05:35:57.327Z,7.77
2018-12-13T05:38:25.794Z,9.40
2018-12-13T05:40:54.343Z,11.07
2018-12-13T05:43:22.817Z,8.63
2018-12-13T05:45:51.310Z,10.10
2018-12-13T05:48:19.757Z,10.77
2018-12-13T05:50:48.223Z,9.40
2018-12-13T05:53:16.704Z,10.40
2018-12-13T05:55:45.195Z,10.77
2018-12-13T05:58:13.639Z,10.90
2018-12-13T06:00:42.082Z,10.60
2018-12-13T06:03:11.547Z,15.77
2018-12-13T06:05:40.059Z,12.70
2018-12-13T06:08:08.703Z,10.87
2018-12-13T06:10:37.145Z,10.60
2018-12-13T06:13:05.562Z,10.97
2018-12-13T06:15:34.084Z,9.70
2018-12-13T06:18:06.769Z,8.23
2018-12-13T06:20:32.946Z,9.67
2018-12-13T06:23:01.378Z,8.63
2018-12-13T06:25:29.843Z,9.83
2018-12-13T06:27:58.338Z,9.00
2018-12-13T06:30:26.924Z,8.60
2018-12-13T06:32:55.406Z,10.10
2018-12-13T06:35:25.359Z,8.10
2018-12-13T06:37:53.821Z,8.87
2018-12-13T06:40:22.346Z,8.10
2018-12-13T06:42:50.791Z,10.77
2018-12-13T06:45:22.958Z,8.73
2018-12-13T06:47:51.441Z,9.70
2018-12-13T06:50:19.893Z,7.90
2018-12-13T06:52:48.371Z,8.33
2018-12-13T06:55:16.845Z,9.10
2018-12-13T06:57:45.387Z,10.17
2018-12-13T07:00:13.881Z,9.57
2018-12-13T07:02:42.449Z,8.67
2018-12-13T07:05:12.658Z,9.33
2018-12-13T07:07:41.351Z,10.30
2018-12-13T07:10:09.861Z,10.77
2018-12-13T07:12:39.021Z,9.87
2018-12-13T07:15:07.881Z,9.53
2018-12-13T07:17:36.362Z,10.07
2018-12-13T07:20:05.343Z,10.13
2018-12-13T07:22:34.731Z,9.40
2018-12-13T07:25:03.322Z,9.93
2018-12-13T07:27:31.798Z,8.77
2018-12-13T07:30:00.309Z,9.20
2018-12-13T07:32:28.748Z,8.90
2018-12-13T07:35:01.333Z,9.10
2018-12-13T07:37:27.808Z,8.53
2018-12-13T07:39:56.263Z,7.83
2018-12-13T07:42:24.691Z,6.77
2018-12-13T07:44:53.143Z,9.10
2018-12-13T07:47:22.627Z,9.43
2018-12-13T07:49:51.799Z,8.13
2018-12-13T07:52:20.310Z,9.37
2018-12-13T07:54:48.742Z,8.47
2018-12-13T07:57:17.248Z,8.33
2018-12-13T07:59:45.698Z,8.40
2018-12-13T08:02:14.167Z,8.97
2018-12-13T08:04:42.698Z,8.77
2018-12-13T08:07:11.139Z,8.97
2018-12-13T08:09:39.684Z,10.60
2018-12-13T08:12:08.185Z,8.70
2018-12-13T08:14:36.693Z,7.97
2018-12-13T08:17:05.268Z,9.00
2018-12-13T08:19:33.747Z,7.97
2018-12-13T08:22:02.190Z,7.90
2018-12-13T08:24:30.643Z,8.23
2018-12-13T08:26:59.119Z,9.00
2018-12-13T08:29:27.539Z,9.10
2018-12-13T08:31:56.023Z,8.80
2018-12-13T08:34:24.490Z,8.30
2018-12-13T08:36:52.930Z,9.37
2018-12-13T08:39:21.379Z,8.77
2018-12-13T08:41:49.822Z,9.00
2018-12-13T08:44:18.252Z,10.60
2018-12-13T08:46:46.695Z,9.40
2018-12-13T08:49:15.144Z,8.90
2018-12-13T08:51:43.685Z,8.33
2018-12-13T08:54:12.224Z,9.73
2018-12-13T08:56:40.677Z,9.90
2018-12-13T08:59:09.217Z,9.73
2018-12-13T09:01:44.345Z,9.67
2018-12-13T09:04:12.806Z,9.30
2018-12-13T09:06:41.315Z,8.20
2018-12-13T09:09:09.758Z,9.57
2018-12-13T09:11:38.239Z,9.03
2018-12-13T09:14:06.662Z,7.97
2018-12-13T09:16:35.105Z,10.97
2018-12-13T09:19:03.802Z,7.83
2018-12-13T09:21:33.210Z,8.77
2018-12-13T09:24:01.651Z,7.93
2018-12-13T09:26:30.107Z,8.07
2018-12-13T09:28:58.589Z,10.10
2018-12-13T09:31:27.065Z,8.57
2018-12-13T09:33:55.726Z,6.97
2018-12-13T09:36:24.188Z,8.40
2018-12-13T09:38:52.639Z,8.20
2018-12-13T09:41:21.039Z,8.77
2018-12-13T09:43:49.468Z,7.93
2018-12-13T09:46:17.906Z,8.17
2018-12-13T09:48:46.404Z,8.60
2018-12-13T09:51:14.864Z,7.93
2018-12-13T09:53:43.460Z,8.67
2018-12-13T09:56:11.895Z,8.70
2018-12-13T09:58:40.345Z,10.20
2018-12-13T10:01:08.829Z,9.73
2018-12-13T10:03:37.314Z,9.73
2018-12-13T10:06:05.890Z,7.57
2018-12-13T10:08:34.330Z,8.37
2018-12-13T10:11:02.757Z,9.63
2018-12-13T10:13:31.178Z,7.83
2018-12-13T10:15:59.627Z,9.17
2018-12-13T10:18:28.029Z,9.53
2018-12-13T10:20:57.055Z,8.20
2018-12-13T10:23:25.562Z,9.87
2018-12-13T10:25:59.413Z,9.87
2018-12-13T10:28:24.497Z,9.60
2018-12-13T10:30:52.930Z,8.00
2018-12-13T10:33:21.468Z,8.20
2018-12-13T10:35:50.066Z,7.50
2018-12-13T10:38:18.503Z,8.87
2018-12-13T10:40:46.985Z,9.03
2018-12-13T10:43:15.583Z,7.73
2018-12-13T10:45:44.018Z,8.60
2018-12-13T10:48:12.456Z,9.97
2018-12-13T10:50:40.915Z,9.00
2018-12-13T10:53:09.464Z,10.80
2018-12-13T10:55:37.922Z,8.80
2018-12-13T10:58:06.363Z,8.43
2018-12-13T11:00:39.915Z,9.63
2018-12-13T11:03:21.283Z,10.23
2018-12-13T11:05:49.830Z,9.83
2018-12-13T11:08:18.296Z,11.23
2018-12-13T11:10:46.990Z,9.27
2018-12-13T11:13:15.440Z,11.00
2018-12-13T11:15:44.051Z,9.93
2018-12-13T11:18:12.525Z,9.57
2018-12-13T11:20:40.973Z,10.80
2018-12-13T11:23:09.411Z,9.00
2018-12-13T11:25:37.887Z,11.30
2018-12-13T11:28:17.571Z,7.90
2018-12-13T11:30:46.802Z,10.10
2018-12-13T11:33:15.371Z,9.30
2018-12-13T11:35:43.817Z,10.37
2018-12-13T11:38:12.358Z,9.17
2018-12-13T11:40:40.818Z,8.60
2018-12-13T11:43:09.267Z,10.33
2018-12-13T11:45:37.757Z,10.60
2018-12-13T11:48:06.290Z,10.33
2018-12-13T11:50:34.783Z,10.60
2018-12-13T11:53:03.278Z,10.80
2018-12-13T11:55:36.353Z,11.57
2018-12-13T11:58:06.738Z,10.00
2018-12-13T12:00:35.273Z,10.07
2018-12-13T12:03:08.122Z,9.60
2018-12-13T12:05:36.574Z,8.10
2018-12-13T12:08:05.163Z,9.47
2018-12-13T12:10:33.599Z,10.30
2018-12-13T12:13:02.041Z,9.80
2018-12-13T12:15:30.480Z,8.50
2018-12-13T12:17:59.114Z,8.30
2018-12-13T12:20:27.596Z,10.30
2018-12-13T12:22:56.062Z,9.27
2018-12-13T12:25:24.488Z,10.63
2018-12-13T12:27:52.926Z,10.87
2018-12-13T12:30:21.410Z,10.43
2018-12-13T12:32:49.852Z,11.13
2018-12-13T12:35:18.302Z,10.83
2018-12-13T12:37:46.744Z,9.23
2018-12-13T12:40:15.272Z,10.30
2018-12-13T12:42:43.816Z,8.70
2018-12-13T12:45:13.006Z,10.00
2018-12-13T12:47:41.492Z,10.80
2018-12-13T12:50:09.978Z,9.63
2018-12-13T12:52:38.409Z,10.83
2018-12-13T12:55:07.141Z,9.50
2018-12-13T12:57:35.560Z,9.40
2018-12-13T13:00:05.155Z,11.00
2018-12-13T13:02:33.742Z,11.47
2018-12-13T13:05:02.234Z,10.60
2018-12-13T13:07:30.698Z,9.90
2018-12-13T13:09:59.183Z,9.47
2018-12-13T13:12:27.623Z,10.40
2018-12-13T13:14:56.052Z,10.63
2018-12-13T13:17:24.548Z,11.03
2018-12-13T13:19:52.970Z,9.00
2018-12-13T13:22:21.420Z,10.93
2018-12-13T13:24:49.847Z,11.37
2018-12-13T13:27:18.332Z,12.00
2018-12-13T13:29:46.745Z,9.80
2018-12-13T13:32:15.200Z,11.90
2018-12-13T13:34:43.630Z,11.50
2018-12-13T13:37:12.063Z,9.80
2018-12-13T13:39:40.484Z,11.33
2018-12-13T13:42:08.919Z,10.13
2018-12-13T13:44:38.891Z,9.87
2018-12-13T13:47:07.488Z,9.23
2018-12-13T13:49:35.927Z,8.90
2018-12-13T13:52:04.775Z,10.80
2018-12-13T13:54:33.372Z,10.73
2018-12-13T13:57:01.888Z,8.63
2018-12-13T13:59:30.331Z,10.40
2018-12-13T14:01:58.771Z,10.57
2018-12-13T14:04:27.224Z,8.83
2018-12-13T14:06:55.688Z,9.00
2018-12-13T14:09:24.207Z,10.63
2018-12-13T14:11:52.614Z,10.37
2018-12-13T14:14:21.100Z,9.97
2018-12-13T14:16:49.557Z,9.87
2018-12-13T14:19:18.032Z,11.33
2018-12-13T14:21:46.466Z,10.37
2018-12-13T14:24:14.892Z,8.93
2018-12-13T14:26:43.335Z,10.80
2018-12-13T14:29:11.760Z,10.90
2018-12-13T14:31:40.223Z,10.03
2018-12-13T14:34:08.831Z,11.00
2018-12-13T14:36:38.833Z,11.23
2018-12-13T14:39:07.787Z,12.30
2018-12-13T14:41:36.363Z,11.07
2018-12-13T14:44:04.905Z,10.77
2018-12-13T14:46:33.343Z,9.30
2018-12-13T14:49:01.807Z,10.70
2018-12-13T14:51:30.288Z,10.60
2018-12-13T14:53:58.748Z,11.50
2018-12-13T14:56:27.220Z,11.47
2018-12-13T14:58:55.695Z,9.80
2018-12-13T15:01:24.189Z,10.83
2018-12-13T15:03:52.622Z,11.77
2018-12-13T15:06:21.209Z,11.80
2018-12-13T15:08:50.300Z,11.10
2018-12-13T15:11:18.812Z,10.30
2018-12-13T15:13:47.527Z,10.70
2018-12-13T15:16:16.277Z,8.63
2018-12-13T15:18:44.768Z,11.30
2018-12-13T15:21:13.231Z,9.30
2018-12-13T15:23:41.824Z,10.47
2018-12-13T15:26:10.263Z,10.73
2018-12-13T15:28:38.733Z,10.90
2018-12-13T15:31:07.243Z,10.27
2018-12-13T15:33:35.697Z,9.70
2018-12-13T15:36:04.178Z,11.60
2018-12-13T15:38:32.646Z,11.60
2018-12-13T15:41:01.132Z,10.33
2018-12-13T15:43:29.598Z,10.33
2018-12-13T15:45:58.035Z,10.03
2018-12-13T15:48:26.596Z,10.57
2018-12-13T15:50:55.558Z,10.60
2018-12-13T15:53:23.995Z,11.77
2018-12-13T15:55:52.444Z,11.60
2018-12-13T15:58:20.885Z,10.83
2018-12-13T16:00:49.640Z,12.43
2018-12-13T16:03:18.526Z,10.13
2018-12-13T16:05:46.961Z,9.50
2018-12-13T16:08:15.761Z,10.80
2018-12-13T16:10:44.238Z,10.63
2018-12-13T16:13:13.397Z,11.83
2018-12-13T16:15:42.096Z,11.47
2018-12-13T16:18:10.639Z,11.10
2018-12-13T16:20:39.455Z,12.60
2018-12-13T16:23:07.903Z,12.10
2018-12-13T16:25:37.896Z,11.93
2018-12-13T16:28:06.464Z,11.07
2018-12-13T16:30:35.031Z,11.80
2018-12-13T16:33:03.557Z,12.60
2018-12-13T16:35:32.109Z,12.13
2018-12-13T16:38:00.572Z,12.50
2018-12-13T16:40:29.153Z,10.50
2018-12-13T16:42:57.732Z,11.57
2018-12-13T16:45:27.255Z,12.00
2018-12-13T16:47:56.969Z,12.10
2018-12-13T16:50:27.382Z,10.90
2018-12-13T16:52:55.907Z,12.20
2018-12-13T16:55:25.591Z,12.17
2018-12-13T16:57:54.294Z,12.00
2018-12-13T17:00:23.674Z,11.00
2018-12-13T17:02:52.249Z,11.60
2018-12-13T17:05:20.959Z,12.90
2018-12-13T17:07:53.175Z,11.97
2018-12-13T17:10:21.710Z,10.00
2018-12-13T17:12:50.152Z,9.70
2018-12-13T17:15:19.689Z,11.03
2018-12-13T17:17:48.142Z,12.10
2018-12-13T17:20:17.080Z,10.90
2018-12-13T17:22:45.620Z,10.93
2018-12-13T17:25:14.042Z,11.00
2018-12-13T17:27:42.582Z,10.93
2018-12-13T17:30:11.659Z,12.10
2018-12-13T17:32:40.239Z,11.37
2018-12-13T17:35:10.039Z,9.93
2018-12-13T17:37:41.751Z,9.90
2018-12-13T17:40:12.933Z,11.57
2018-12-13T17:42:44.374Z,10.60
2018-12-13T17:45:15.523Z,11.40
2018-12-13T17:47:47.209Z,10.20
2018-12-13T17:50:19.135Z,11.73
2018-12-13T17:52:50.476Z,11.60
2018-12-13T17:55:21.702Z,11.70
2018-12-13T17:57:53.543Z,11.20
2018-12-13T18:00:22.101Z,11.03
2018-12-13T18:02:50.735Z,10.63
2018-12-13T18:05:19.231Z,9.73
2018-12-13T18:07:47.707Z,10.83
2018-12-13T18:10:16.155Z,10.83
2018-12-13T18:12:44.629Z,10.20
2018-12-13T18:15:13.091Z,9.93
2018-12-13T18:17:41.504Z,9.20
2018-12-13T18:20:09.984Z,9.77
2018-12-13T18:22:38.412Z,8.30
2018-12-13T18:25:06.971Z,10.40
2018-12-13T18:27:35.464Z,9.23
2018-12-13T18:30:04.288Z,10.23
2018-12-13T18:32:32.796Z,9.20
2018-12-13T18:35:01.252Z,8.57
2018-12-13T18:37:29.751Z,8.57
2018-12-13T18:39:58.210Z,9.20
2018-12-13T18:42:26.672Z,8.23
2018-12-13T18:44:55.188Z,8.50
2018-12-13T18:47:23.663Z,8.90
2018-12-13T18:49:52.099Z,7.80
2018-12-13T18:52:20.586Z,8.87
2018-12-13T18:54:49.050Z,9.13
2018-12-13T18:57:17.495Z,7.60
2018-12-13T18:59:45.925Z,8.47
2018-12-13T19:02:14.347Z,7.97
2018-12-13T19:04:42.845Z,7.90
2018-12-13T19:07:11.321Z,8.10
2018-12-13T19:09:39.746Z,9.77
2018-12-13T19:12:08.170Z,9.30
2018-12-13T19:14:36.602Z,8.57
2018-12-13T19:17:05.547Z,8.53
2018-12-13T19:19:33.960Z,8.70
2018-12-13T19:22:02.408Z,7.30
2018-12-13T19:24:31.229Z,6.93
2018-12-13T19:26:59.645Z,8.00
2018-12-13T19:29:28.130Z,8.10
2018-12-13T19:31:56.546Z,9.20
2018-12-13T19:34:25.002Z,8.90
2018-12-13T19:36:53.527Z,8.63
2018-12-13T19:39:22.024Z,9.23
2018-12-13T19:41:50.478Z,7.57
2018-12-13T19:44:19.023Z,7.20
2018-12-13T19:46:47.443Z,7.97
2018-12-13T19:49:15.951Z,8.57
2018-12-13T19:51:44.370Z,8.20
2018-12-13T19:54:12.852Z,9.30
2018-12-13T19:56:41.283Z,8.20
2018-12-13T19:59:09.708Z,8.20
2018-12-13T20:01:38.149Z,8.23
2018-12-13T20:04:06.609Z,8.17
2018-12-13T20:06:35.073Z,8.00
2018-12-13T20:09:05.163Z,7.23
2018-12-13T20:11:33.598Z,7.03
2018-12-13T20:14:02.049Z,7.10
2018-12-13T20:16:30.558Z,7.07
2018-12-13T20:18:59.027Z,8.70
2018-12-13T20:21:27.458Z,7.83
2018-12-13T20:23:55.912Z,7.87
2018-12-13T20:26:24.341Z,7.90
2018-12-13T20:28:52.770Z,6.90
2018-12-13T20:31:21.203Z,7.30
2018-12-13T20:33:50.344Z,7.90
2018-12-13T20:36:19.511Z,8.47
2018-12-13T20:38:48.048Z,8.20
2018-12-13T20:41:16.490Z,8.93
2018-12-13T20:43:44.919Z,8.70
2018-12-13T20:46:13.395Z,6.50
2018-12-13T20:48:41.894Z,8.17
2018-12-13T20:51:10.361Z,8.80
2018-12-13T20:53:45.587Z,7.93
2018-12-13T20:56:14.095Z,8.80
2018-12-13T20:58:42.528Z,6.83
2018-12-13T21:01:10.943Z,6.37
2018-12-13T21:03:39.380Z,5.77
2018-12-13T21:06:07.830Z,6.00
2018-12-13T21:08:36.295Z,7.83
2018-12-13T21:11:07.557Z,7.03
2018-12-13T21:13:35.246Z,7.30
2018-12-13T21:16:03.711Z,8.33
2018-12-13T21:18:32.150Z,6.83
2018-12-13T21:21:00.565Z,5.47
2018-12-13T21:23:29.185Z,5.77
2018-12-13T21:25:57.674Z,6.70
2018-12-13T21:28:26.212Z,7.73
2018-12-13T21:30:54.636Z,5.20
2018-12-13T21:33:23.127Z,6.27
2018-12-13T21:35:51.565Z,7.17
